createdAt,value
2023-03-22T00:00:39.565Z,0.00
2023-03-22T00:01:39.204Z,0.00
2023-03-22T00:02:39.274Z,0.00
2023-03-22T00:03:39.918Z,0.00
2023-03-22T00:04:39.165Z,0.00
2023-03-22T00:05:39.149Z,0.00
2023-03-22T00:06:39.184Z,0.00
2023-03-22T00:07:39.126Z,0.00
2023-03-22T00:08:39.105Z,0.00
2023-03-22T00:09:39.136Z,0.00
2023-03-22T00:10:39.330Z,0.00
2023-03-22T00:11:39.073Z,0.00
2023-03-22T00:12:39.144Z,0.00
2023-03-22T00:13:39.074Z,0.00
2023-03-22T00:14:39.038Z,0.00
2023-03-22T00:15:39.120Z,0.00
2023-03-22T00:16:39.017Z,0.00
2023-03-22T00:17:39.116Z,0.00
2023-03-22T00:18:39.033Z,0.00
2023-03-22T00:19:38.998Z,0.00
2023-03-22T00:20:39.204Z,0.00
2023-03-22T00:21:38.993Z,0.00
2023-03-22T00:22:39.000Z,0.00
2023-03-22T00:23:38.955Z,0.00
2023-03-22T00:24:38.947Z,0.00
2023-03-22T00:25:38.928Z,0.00
2023-03-22T00:26:38.930Z,0.00
2023-03-22T00:27:38.924Z,0.00
2023-03-22T00:28:38.898Z,0.00
2023-03-22T00:29:38.880Z,0.00
2023-03-22T00:30:39.147Z,0.00
2023-03-22T00:31:38.969Z,0.00
2023-03-22T00:32:38.865Z,0.00
2023-03-22T00:33:38.860Z,0.00
2023-03-22T00:34:38.847Z,0.00
2023-03-22T00:35:38.827Z,0.00
2023-03-22T00:36:38.809Z,0.00
2023-03-22T00:37:38.849Z,0.00
2023-03-22T00:38:42.863Z,0.00
2023-03-22T00:39:38.774Z,0.00
2023-03-22T00:40:39.048Z,0.00
2023-03-22T00:41:38.765Z,0.00
2023-03-22T00:42:38.767Z,0.00
2023-03-22T00:43:38.760Z,0.00
2023-03-22T00:44:38.726Z,0.00
2023-03-22T00:45:38.714Z,0.00
2023-03-22T00:46:38.714Z,0.00
2023-03-22T00:47:38.712Z,0.00
2023-03-22T00:48:38.719Z,0.00
2023-03-22T00:49:38.684Z,0.00
2023-03-22T00:50:38.910Z,0.00
2023-03-22T00:51:38.670Z,0.00
2023-03-22T00:52:38.669Z,0.00
2023-03-22T00:53:41.094Z,0.00
2023-03-22T00:54:38.659Z,0.00
2023-03-22T00:55:38.619Z,0.00
2023-03-22T00:56:38.615Z,0.00
2023-03-22T00:57:38.651Z,0.00
2023-03-22T00:58:38.611Z,0.00
2023-03-22T00:59:38.592Z,0.00
2023-03-22T01:00:38.825Z,0.00
2023-03-22T01:01:38.547Z,0.00
2023-03-22T01:02:38.552Z,0.00
2023-03-22T01:03:38.632Z,0.00
2023-03-22T01:04:38.534Z,0.00
2023-03-22T01:05:38.575Z,0.00
2023-03-22T01:06:38.514Z,0.00
2023-03-22T01:07:38.510Z,0.00
2023-03-22T01:08:38.487Z,0.00
2023-03-22T01:09:38.479Z,0.00
2023-03-22T01:10:38.822Z,0.00
2023-03-22T01:11:38.455Z,0.00
2023-03-22T01:12:38.447Z,0.00
2023-03-22T01:13:38.491Z,0.00
2023-03-22T01:14:38.419Z,0.00
2023-03-22T01:15:38.411Z,0.00
2023-03-22T01:16:38.440Z,0.00
2023-03-22T01:17:38.404Z,0.00
2023-03-22T01:18:38.408Z,0.00
2023-03-22T01:19:38.359Z,0.00
2023-03-22T01:20:38.853Z,0.00
2023-03-22T01:21:38.375Z,0.00
2023-03-22T01:22:38.378Z,0.00
2023-03-22T01:23:38.387Z,0.00
2023-03-22T01:24:38.318Z,0.00
2023-03-22T01:25:38.332Z,0.00
2023-03-22T01:26:38.288Z,0.00
2023-03-22T01:27:38.283Z,0.00
2023-03-22T01:28:38.279Z,0.00
2023-03-22T01:29:38.281Z,0.00
2023-03-22T01:30:38.630Z,0.00
2023-03-22T01:31:38.249Z,0.00
2023-03-22T01:32:38.254Z,0.00
2023-03-22T01:33:38.236Z,0.00
2023-03-22T01:34:38.226Z,0.00
2023-03-22T01:35:38.293Z,0.00
2023-03-22T01:36:38.204Z,0.00
2023-03-22T01:37:38.189Z,0.00
2023-03-22T01:38:38.213Z,0.00
2023-03-22T01:39:38.265Z,0.00
2023-03-22T01:40:38.608Z,0.00
2023-03-22T01:41:38.160Z,0.00
2023-03-22T01:42:38.221Z,0.00
2023-03-22T01:43:38.146Z,0.00
2023-03-22T01:44:38.121Z,0.00
2023-03-22T01:45:38.148Z,0.00
2023-03-22T01:46:38.209Z,0.00
2023-03-22T01:47:38.084Z,0.00
2023-03-22T01:48:38.166Z,0.00
2023-03-22T01:49:38.056Z,0.00
2023-03-22T01:50:38.407Z,0.00
2023-03-22T01:51:38.023Z,0.00
2023-03-22T01:52:38.074Z,0.00
2023-03-22T01:53:38.045Z,0.00
2023-03-22T01:54:38.040Z,0.00
2023-03-22T01:55:38.005Z,0.00
2023-03-22T01:56:37.978Z,0.00
2023-03-22T01:57:38.069Z,0.00
2023-03-22T01:58:37.965Z,0.00
2023-03-22T01:59:37.952Z,0.00
2023-03-22T02:00:38.204Z,0.00
2023-03-22T02:01:38.050Z,0.00
2023-03-22T02:02:38.075Z,0.00
2023-03-22T02:03:37.904Z,0.00
2023-03-22T02:04:37.929Z,0.00
2023-03-22T02:05:37.894Z,0.00
2023-03-22T02:06:37.893Z,0.00
2023-03-22T02:07:37.914Z,0.00
2023-03-22T02:08:37.873Z,0.00
2023-03-22T02:09:37.843Z,0.00
2023-03-22T02:10:38.225Z,0.00
2023-03-22T02:11:37.838Z,0.00
2023-03-22T02:12:37.835Z,0.00
2023-03-22T02:13:37.809Z,0.00
2023-03-22T02:14:37.795Z,0.00
2023-03-22T02:15:37.796Z,0.00
2023-03-22T02:16:37.774Z,0.00
2023-03-22T02:17:37.806Z,0.00
2023-03-22T02:18:37.768Z,0.00
2023-03-22T02:19:37.734Z,0.00
2023-03-22T02:20:38.019Z,0.00
2023-03-22T02:21:37.732Z,0.00
2023-03-22T02:22:37.751Z,0.00
2023-03-22T02:23:37.737Z,0.00
2023-03-22T02:24:37.688Z,0.00
2023-03-22T02:25:37.694Z,0.00
2023-03-22T02:26:37.670Z,0.00
2023-03-22T02:27:37.674Z,0.00
2023-03-22T02:28:37.646Z,0.00
2023-03-22T02:29:37.656Z,0.00
2023-03-22T02:30:38.070Z,0.00
2023-03-22T02:31:37.742Z,0.00
2023-03-22T02:32:37.631Z,0.00
2023-03-22T02:33:39.813Z,0.00
2023-03-22T02:34:37.586Z,0.00
2023-03-22T02:35:37.610Z,0.00
2023-03-22T02:36:37.590Z,0.00
2023-03-22T02:37:37.595Z,0.00
2023-03-22T02:38:37.548Z,0.00
2023-03-22T02:39:37.536Z,0.00
2023-03-22T02:40:37.827Z,0.00
2023-03-22T02:41:37.512Z,0.00
2023-03-22T02:42:37.547Z,0.00
2023-03-22T02:43:37.491Z,0.00
2023-03-22T02:44:37.487Z,0.00
2023-03-22T02:45:37.497Z,0.00
2023-03-22T02:46:37.503Z,0.00
2023-03-22T02:47:37.494Z,0.00
2023-03-22T02:48:37.488Z,0.00
2023-03-22T02:49:37.428Z,0.00
2023-03-22T02:50:37.757Z,0.00
2023-03-22T02:51:37.409Z,0.00
2023-03-22T02:52:37.426Z,0.00
2023-03-22T02:53:37.441Z,0.00
2023-03-22T02:54:37.388Z,0.00
2023-03-22T02:55:37.372Z,0.00
2023-03-22T02:56:37.376Z,0.00
2023-03-22T02:57:37.422Z,0.00
2023-03-22T02:58:37.338Z,0.00
2023-03-22T02:59:37.323Z,0.00
2023-03-22T03:00:37.659Z,0.00
2023-03-22T03:01:37.360Z,0.00
2023-03-22T03:02:37.342Z,0.00
2023-03-22T03:03:37.287Z,0.00
2023-03-22T03:04:37.278Z,0.00
2023-03-22T03:05:37.307Z,0.00
2023-03-22T03:06:37.271Z,0.00
2023-03-22T03:07:37.271Z,0.00
2023-03-22T03:08:37.255Z,0.00
2023-03-22T03:09:37.243Z,0.00
2023-03-22T03:10:37.298Z,0.00
2023-03-22T03:11:37.204Z,0.00
2023-03-22T03:12:37.214Z,0.00
2023-03-22T03:13:37.187Z,0.00
2023-03-22T03:14:37.173Z,0.00
2023-03-22T03:15:37.161Z,0.00
2023-03-22T03:16:37.281Z,0.00
2023-03-22T03:17:37.154Z,0.00
2023-03-22T03:18:37.187Z,0.00
2023-03-22T03:19:37.124Z,0.00
2023-03-22T03:20:37.419Z,0.00
2023-03-22T03:21:37.109Z,0.00
2023-03-22T03:22:37.102Z,0.00
2023-03-22T03:23:37.120Z,0.00
2023-03-22T03:24:37.073Z,0.00
2023-03-22T03:25:37.059Z,0.00
2023-03-22T03:26:37.073Z,0.00
2023-03-22T03:27:37.040Z,0.00
2023-03-22T03:28:37.046Z,0.00
2023-03-22T03:29:37.052Z,0.00
2023-03-22T03:30:37.192Z,0.00
2023-03-22T03:31:37.053Z,0.00
2023-03-22T03:32:36.997Z,0.00
2023-03-22T03:33:37.015Z,0.00
2023-03-22T03:34:36.965Z,0.00
2023-03-22T03:35:36.996Z,0.00
2023-03-22T03:36:36.962Z,0.00
2023-03-22T03:37:36.946Z,0.00
2023-03-22T03:38:36.938Z,0.00
2023-03-22T03:39:36.921Z,0.00
2023-03-22T03:40:37.037Z,0.00
2023-03-22T03:41:36.904Z,0.00
2023-03-22T03:42:36.930Z,0.00
2023-03-22T03:43:36.894Z,0.00
2023-03-22T03:44:36.864Z,0.00
2023-03-22T03:45:36.908Z,0.00
2023-03-22T03:46:36.867Z,0.00
2023-03-22T03:47:36.844Z,0.00
2023-03-22T03:48:36.839Z,0.00
2023-03-22T03:49:36.836Z,0.00
2023-03-22T03:50:36.963Z,0.00
2023-03-22T03:51:36.795Z,0.00
2023-03-22T03:52:36.808Z,0.00
2023-03-22T03:53:36.788Z,0.00
2023-03-22T03:54:36.760Z,0.00
2023-03-22T03:55:36.780Z,0.00
2023-03-22T03:56:36.762Z,0.00
2023-03-22T03:57:36.731Z,0.00
2023-03-22T03:58:36.745Z,0.00
2023-03-22T03:59:36.734Z,0.00
2023-03-22T04:00:36.818Z,0.00
2023-03-22T04:01:36.702Z,0.00
2023-03-22T04:02:36.764Z,0.00
2023-03-22T04:03:36.681Z,0.00
2023-03-22T04:04:36.733Z,0.00
2023-03-22T04:05:36.673Z,0.00
2023-03-22T04:06:36.671Z,0.00
2023-03-22T04:07:36.644Z,0.00
2023-03-22T04:08:36.639Z,0.00
2023-03-22T04:09:36.655Z,0.00
2023-03-22T04:10:36.662Z,0.00
2023-03-22T04:11:36.584Z,0.00
2023-03-22T04:12:36.588Z,0.00
2023-03-22T04:13:36.589Z,0.00
2023-03-22T04:14:36.554Z,0.00
2023-03-22T04:15:36.598Z,0.00
2023-03-22T04:16:36.635Z,0.00
2023-03-22T04:17:36.549Z,0.00
2023-03-22T04:18:36.577Z,0.00
2023-03-22T04:19:36.514Z,0.00
2023-03-22T04:20:36.540Z,0.00
2023-03-22T04:21:36.496Z,0.00
2023-03-22T04:22:36.487Z,0.00
2023-03-22T04:23:36.478Z,0.00
2023-03-22T04:24:36.458Z,0.00
2023-03-22T04:25:36.465Z,0.00
2023-03-22T04:26:36.430Z,0.00
2023-03-22T04:27:36.447Z,0.00
2023-03-22T04:28:36.455Z,0.00
2023-03-22T04:29:36.466Z,0.00
2023-03-22T04:30:36.585Z,0.00
2023-03-22T04:31:36.405Z,0.00
2023-03-22T04:32:36.417Z,0.00
2023-03-22T04:33:36.422Z,0.00
2023-03-22T04:34:36.382Z,0.00
2023-03-22T04:35:36.406Z,0.00
2023-03-22T04:36:36.359Z,0.00
2023-03-22T04:37:36.294Z,0.00
2023-03-22T04:38:36.267Z,0.00
2023-03-22T04:39:36.293Z,0.00
2023-03-22T04:40:36.306Z,0.00
2023-03-22T04:41:36.243Z,0.00
2023-03-22T04:42:36.218Z,0.00
2023-03-22T04:43:36.270Z,0.00
2023-03-22T04:44:36.195Z,0.00
2023-03-22T04:45:36.205Z,0.00
2023-03-22T04:46:36.233Z,0.00
2023-03-22T04:47:36.185Z,0.00
2023-03-22T04:48:36.169Z,0.00
2023-03-22T04:49:36.140Z,0.00
2023-03-22T04:50:36.129Z,0.00
2023-03-22T04:51:36.124Z,0.00
2023-03-22T04:52:36.172Z,0.00
2023-03-22T04:53:36.127Z,0.00
2023-03-22T04:54:36.183Z,0.00
2023-03-22T04:55:36.137Z,0.00
2023-03-22T04:56:36.061Z,0.00
2023-03-22T04:57:36.080Z,0.00
2023-03-22T04:58:36.063Z,0.00
2023-03-22T04:59:36.039Z,0.00
2023-03-22T05:00:36.030Z,0.00
2023-03-22T05:01:36.050Z,0.00
2023-03-22T05:02:36.042Z,0.00
2023-03-22T05:03:36.003Z,0.00
2023-03-22T05:04:35.985Z,0.00
2023-03-22T05:05:35.983Z,0.00
2023-03-22T05:06:35.959Z,0.00
2023-03-22T05:07:35.983Z,0.00
2023-03-22T05:08:35.948Z,0.00
2023-03-22T05:09:35.930Z,0.00
2023-03-22T05:10:35.927Z,0.00
2023-03-22T05:11:35.965Z,0.00
2023-03-22T05:12:35.930Z,0.00
2023-03-22T05:13:35.899Z,0.00
2023-03-22T05:14:35.922Z,0.00
2023-03-22T05:15:35.879Z,0.00
2023-03-22T05:16:35.864Z,0.00
2023-03-22T05:17:35.851Z,0.00
2023-03-22T05:18:35.887Z,0.00
2023-03-22T05:19:35.829Z,0.00
2023-03-22T05:20:35.819Z,0.00
2023-03-22T05:21:35.828Z,0.00
2023-03-22T05:22:35.800Z,0.00
2023-03-22T05:23:35.810Z,0.00
2023-03-22T05:24:35.783Z,0.00
2023-03-22T05:25:35.781Z,0.00
2023-03-22T05:26:35.756Z,0.00
2023-03-22T05:27:35.759Z,5.62
2023-03-22T05:28:35.776Z,5.62
2023-03-22T05:29:35.734Z,0.00
2023-03-22T05:30:35.738Z,0.00
2023-03-22T05:31:35.740Z,0.00
2023-03-22T05:32:35.699Z,0.00
2023-03-22T05:33:35.703Z,0.00
2023-03-22T05:34:35.960Z,0.00
2023-03-22T05:35:35.707Z,5.62
2023-03-22T05:36:35.647Z,5.62
2023-03-22T05:37:35.661Z,0.00
2023-03-22T05:38:35.657Z,0.00
2023-03-22T05:39:35.629Z,0.00
2023-03-22T05:40:35.622Z,5.62
2023-03-22T05:41:36.804Z,5.62
2023-03-22T05:42:36.116Z,5.62
2023-03-22T05:43:35.785Z,5.62
2023-03-22T05:44:35.802Z,5.62
2023-03-22T05:45:35.564Z,5.62
2023-03-22T05:46:35.607Z,5.62
2023-03-22T05:47:35.599Z,5.62
2023-03-22T05:48:35.545Z,11.25
2023-03-22T05:49:35.530Z,11.25
2023-03-22T05:50:35.511Z,11.25
2023-03-22T05:51:35.531Z,11.25
2023-03-22T05:52:35.513Z,11.25
2023-03-22T05:53:35.507Z,11.25
2023-03-22T05:54:35.466Z,11.25
2023-03-22T05:55:35.480Z,11.25
2023-03-22T05:56:35.484Z,11.25
2023-03-22T05:57:35.464Z,11.25
2023-03-22T05:58:35.459Z,11.25
2023-03-22T05:59:35.425Z,11.25
2023-03-22T06:00:35.410Z,11.25
2023-03-22T06:01:35.477Z,11.25
2023-03-22T06:02:35.477Z,11.25
2023-03-22T06:03:35.552Z,16.88
2023-03-22T06:04:35.370Z,16.88
2023-03-22T06:05:35.362Z,16.88
2023-03-22T06:06:35.368Z,16.88
2023-03-22T06:07:35.354Z,16.88
2023-03-22T06:08:35.325Z,16.88
2023-03-22T06:09:36.028Z,16.88
2023-03-22T06:10:35.331Z,16.88
2023-03-22T06:11:35.405Z,16.88
2023-03-22T06:12:35.376Z,16.88
2023-03-22T06:13:35.415Z,16.88
2023-03-22T06:14:35.492Z,16.88
2023-03-22T06:15:35.260Z,16.88
2023-03-22T06:16:35.351Z,22.50
2023-03-22T06:17:35.341Z,22.50
2023-03-22T06:18:35.314Z,22.50
2023-03-22T06:19:35.621Z,22.50
2023-03-22T06:20:35.234Z,22.50
2023-03-22T06:21:35.287Z,22.50
2023-03-22T06:22:35.197Z,22.50
2023-03-22T06:23:35.186Z,22.50
2023-03-22T06:24:35.179Z,22.50
2023-03-22T06:25:35.173Z,22.50
2023-03-22T06:26:35.158Z,28.12
2023-03-22T06:27:35.133Z,28.12
2023-03-22T06:28:35.123Z,28.12
2023-03-22T06:29:35.142Z,28.12
2023-03-22T06:30:35.155Z,28.12
2023-03-22T06:31:35.177Z,28.12
2023-03-22T06:32:35.280Z,28.12
2023-03-22T06:33:35.074Z,28.12
2023-03-22T06:34:35.101Z,33.75
2023-03-22T06:35:35.100Z,33.75
2023-03-22T06:36:35.038Z,33.75
2023-03-22T06:37:35.048Z,33.75
2023-03-22T06:38:35.023Z,33.75
2023-03-22T06:39:35.013Z,33.75
2023-03-22T06:40:35.007Z,33.75
2023-03-22T06:41:34.978Z,33.75
2023-03-22T06:42:35.043Z,33.75
2023-03-22T06:43:34.977Z,33.75
2023-03-22T06:44:34.979Z,33.75
2023-03-22T06:45:34.951Z,33.75
2023-03-22T06:46:34.944Z,33.75
2023-03-22T06:47:34.939Z,33.75
2023-03-22T06:48:34.911Z,33.75
2023-03-22T06:49:34.928Z,39.38
2023-03-22T06:50:34.885Z,39.38
2023-03-22T06:51:34.884Z,39.38
2023-03-22T06:52:34.909Z,39.38
2023-03-22T06:53:34.863Z,39.38
2023-03-22T06:54:34.879Z,39.38
2023-03-22T06:55:34.922Z,39.38
2023-03-22T06:56:34.829Z,39.38
2023-03-22T06:57:34.830Z,45.00
2023-03-22T06:58:34.920Z,45.00
2023-03-22T06:59:34.799Z,45.00
2023-03-22T07:00:34.797Z,45.00
2023-03-22T07:01:34.842Z,45.00
2023-03-22T07:02:34.751Z,45.00
2023-03-22T07:03:34.793Z,45.00
2023-03-22T07:04:34.812Z,50.62
2023-03-22T07:05:34.748Z,50.62
2023-03-22T07:06:34.724Z,50.62
2023-03-22T07:07:34.706Z,50.62
2023-03-22T07:08:34.697Z,50.62
2023-03-22T07:09:34.727Z,50.62
2023-03-22T07:10:34.693Z,50.62
2023-03-22T07:11:34.679Z,50.62
2023-03-22T07:12:34.719Z,50.62
2023-03-22T07:13:34.668Z,56.25
2023-03-22T07:14:34.658Z,56.25
2023-03-22T07:15:34.773Z,56.25
2023-03-22T07:16:34.614Z,56.25
2023-03-22T07:17:34.618Z,56.25
2023-03-22T07:18:34.603Z,61.88
2023-03-22T07:19:34.604Z,61.88
2023-03-22T07:20:34.573Z,61.88
2023-03-22T07:21:34.568Z,67.50
2023-03-22T07:22:34.581Z,67.50
2023-03-22T07:23:34.569Z,67.50
2023-03-22T07:24:36.041Z,67.50
2023-03-22T07:25:34.530Z,67.50
2023-03-22T07:26:34.501Z,67.50
2023-03-22T07:27:34.524Z,73.12
2023-03-22T07:28:34.501Z,73.12
2023-03-22T07:29:34.504Z,73.12
2023-03-22T07:30:34.468Z,73.12
2023-03-22T07:31:34.472Z,73.12
2023-03-22T07:32:34.487Z,78.75
2023-03-22T07:33:34.450Z,78.75
2023-03-22T07:34:34.453Z,78.75
2023-03-22T07:35:34.468Z,84.38
2023-03-22T07:36:34.425Z,84.38
2023-03-22T07:37:34.436Z,84.38
2023-03-22T07:38:34.403Z,84.38
2023-03-22T07:39:34.393Z,84.38
2023-03-22T07:40:34.365Z,84.38
2023-03-22T07:41:34.381Z,84.38
2023-03-22T07:42:34.340Z,84.38
2023-03-22T07:43:47.284Z,84.38
2023-03-22T07:44:34.354Z,90.00
2023-03-22T07:45:34.411Z,90.00
2023-03-22T07:46:34.482Z,95.62
2023-03-22T07:47:41.209Z,95.62
2023-03-22T07:48:34.408Z,95.62
2023-03-22T07:49:34.304Z,101.25
2023-03-22T07:50:34.361Z,106.88
2023-03-22T07:51:34.267Z,112.50
2023-03-22T07:52:34.256Z,112.50
2023-03-22T07:53:34.233Z,118.12
2023-03-22T07:54:34.725Z,118.12
2023-03-22T07:55:34.252Z,123.75
2023-03-22T07:56:34.204Z,135.00
2023-03-22T07:57:34.202Z,129.38
2023-03-22T07:58:34.190Z,129.38
2023-03-22T07:59:34.179Z,135.00
2023-03-22T08:00:34.163Z,146.25
2023-03-22T08:01:34.358Z,151.88
2023-03-22T08:02:34.165Z,146.25
2023-03-22T08:03:34.147Z,151.88
2023-03-22T08:04:34.139Z,151.88
2023-03-22T08:05:34.118Z,151.88
2023-03-22T08:06:34.099Z,157.50
2023-03-22T08:07:34.104Z,168.75
2023-03-22T08:08:34.089Z,191.25
2023-03-22T08:09:34.143Z,191.25
2023-03-22T08:10:34.056Z,196.88
2023-03-22T08:11:34.041Z,185.62
2023-03-22T08:12:34.062Z,219.38
2023-03-22T08:13:34.021Z,219.38
2023-03-22T08:14:36.789Z,241.88
2023-03-22T08:15:34.000Z,225.00
2023-03-22T08:16:34.047Z,208.12
2023-03-22T08:17:33.990Z,281.25
2023-03-22T08:18:33.990Z,174.38
2023-03-22T08:19:33.986Z,146.25
2023-03-22T08:20:33.961Z,140.62
2023-03-22T08:21:33.943Z,140.62
2023-03-22T08:22:33.930Z,146.25
2023-03-22T08:23:41.423Z,151.88
2023-03-22T08:24:33.929Z,157.50
2023-03-22T08:25:33.916Z,157.50
2023-03-22T08:26:33.891Z,157.50
2023-03-22T08:27:33.894Z,157.50
2023-03-22T08:28:33.865Z,157.50
2023-03-22T08:29:33.862Z,151.88
2023-03-22T08:30:33.840Z,157.50
2023-03-22T08:31:33.848Z,151.88
2023-03-22T08:32:33.838Z,151.88
2023-03-22T08:33:33.823Z,151.88
2023-03-22T08:34:33.826Z,151.88
2023-03-22T08:35:33.864Z,157.50
2023-03-22T08:36:33.809Z,157.50
2023-03-22T08:37:33.793Z,157.50
2023-03-22T08:38:33.761Z,157.50
2023-03-22T08:39:33.774Z,163.12
2023-03-22T08:40:33.752Z,163.12
2023-03-22T08:41:33.727Z,168.75
2023-03-22T08:42:33.720Z,168.75
2023-03-22T08:43:33.702Z,168.75
2023-03-22T08:44:33.713Z,168.75
2023-03-22T08:45:33.681Z,163.12
2023-03-22T08:46:33.724Z,168.75
2023-03-22T08:47:33.667Z,168.75
2023-03-22T08:48:33.656Z,168.75
2023-03-22T08:49:33.657Z,168.75
2023-03-22T08:50:33.643Z,174.38
2023-03-22T08:51:33.619Z,174.38
2023-03-22T08:52:33.629Z,174.38
2023-03-22T08:53:33.596Z,180.00
2023-03-22T08:54:33.746Z,180.00
2023-03-22T08:55:33.581Z,180.00
2023-03-22T08:56:33.572Z,180.00
2023-03-22T08:57:33.567Z,174.38
2023-03-22T08:58:33.556Z,174.38
2023-03-22T08:59:33.568Z,180.00
2023-03-22T09:00:47.419Z,180.00
2023-03-22T09:01:33.695Z,180.00
2023-03-22T09:02:33.531Z,185.62
2023-03-22T09:03:33.502Z,185.62
2023-03-22T09:04:33.582Z,185.62
2023-03-22T09:05:33.479Z,185.62
2023-03-22T09:06:33.469Z,185.62
2023-03-22T09:07:33.452Z,185.62
2023-03-22T09:08:33.454Z,185.62
2023-03-22T09:09:33.644Z,185.62
2023-03-22T09:10:33.451Z,191.25
2023-03-22T09:11:33.418Z,191.25
2023-03-22T09:12:33.404Z,196.88
2023-03-22T09:13:33.386Z,202.50
2023-03-22T09:14:33.394Z,202.50
2023-03-22T09:15:33.375Z,208.12
2023-03-22T09:16:33.448Z,208.12
2023-03-22T09:17:33.345Z,213.75
2023-03-22T09:18:33.344Z,219.38
2023-03-22T09:19:34.421Z,225.00
2023-03-22T09:20:33.321Z,230.62
2023-03-22T09:21:33.310Z,253.12
2023-03-22T09:22:33.350Z,298.12
2023-03-22T09:23:33.298Z,253.12
2023-03-22T09:24:33.291Z,247.50
2023-03-22T09:25:33.287Z,253.12
2023-03-22T09:26:33.268Z,264.38
2023-03-22T09:27:33.272Z,281.25
2023-03-22T09:28:33.267Z,298.12
2023-03-22T09:29:33.227Z,275.62
2023-03-22T09:30:33.223Z,303.75
2023-03-22T09:31:33.254Z,320.62
2023-03-22T09:32:33.511Z,337.50
2023-03-22T09:33:33.182Z,365.62
2023-03-22T09:34:33.167Z,360.00
2023-03-22T09:35:33.226Z,292.50
2023-03-22T09:36:33.156Z,292.50
2023-03-22T09:37:33.138Z,298.12
2023-03-22T09:38:33.130Z,298.12
2023-03-22T09:39:33.116Z,298.12
2023-03-22T09:40:33.132Z,331.88
2023-03-22T09:41:33.107Z,303.75
2023-03-22T09:42:33.095Z,258.75
2023-03-22T09:43:33.284Z,264.38
2023-03-22T09:44:33.069Z,264.38
2023-03-22T09:45:33.060Z,270.00
2023-03-22T09:46:33.092Z,298.12
2023-03-22T09:47:43.867Z,376.88
2023-03-22T09:48:33.083Z,348.75
2023-03-22T09:49:40.991Z,320.62
2023-03-22T09:50:33.039Z,303.75
2023-03-22T09:51:32.994Z,292.50
2023-03-22T09:52:33.043Z,292.50
2023-03-22T09:53:32.983Z,315.00
2023-03-22T09:54:32.963Z,281.25
2023-03-22T09:55:32.970Z,270.00
2023-03-22T09:56:32.971Z,270.00
2023-03-22T09:57:32.957Z,281.25
2023-03-22T09:58:32.980Z,348.75
2023-03-22T09:59:32.911Z,348.75
2023-03-22T10:00:33.113Z,264.38
2023-03-22T10:01:33.049Z,225.00
2023-03-22T10:02:32.970Z,219.38
2023-03-22T10:03:32.890Z,230.62
2023-03-22T10:04:32.954Z,241.88
2023-03-22T10:05:32.864Z,247.50
2023-03-22T10:06:32.898Z,247.50
2023-03-22T10:07:32.829Z,247.50
2023-03-22T10:08:32.847Z,275.62
2023-03-22T10:09:32.918Z,281.25
2023-03-22T10:10:32.825Z,281.25
2023-03-22T10:11:32.794Z,315.00
2023-03-22T10:12:32.779Z,354.38
2023-03-22T10:13:32.761Z,450.00
2023-03-22T10:14:32.822Z,511.88
2023-03-22T10:15:32.815Z,450.00
2023-03-22T10:16:32.809Z,382.50
2023-03-22T10:17:32.737Z,466.88
2023-03-22T10:18:32.731Z,241.88
2023-03-22T10:19:32.715Z,219.38
2023-03-22T10:20:32.708Z,219.38
2023-03-22T10:21:32.722Z,219.38
2023-03-22T10:22:32.676Z,236.25
2023-03-22T10:23:32.671Z,292.50
2023-03-22T10:24:32.684Z,309.38
2023-03-22T10:25:32.666Z,405.00
2023-03-22T10:26:32.750Z,483.75
2023-03-22T10:27:32.620Z,343.12
2023-03-22T10:28:32.653Z,326.25
2023-03-22T10:29:32.611Z,258.75
2023-03-22T10:30:32.635Z,241.88
2023-03-22T10:31:32.671Z,275.62
2023-03-22T10:32:32.855Z,264.38
2023-03-22T10:33:32.635Z,225.00
2023-03-22T10:34:32.567Z,258.75
2023-03-22T10:35:32.784Z,247.50
2023-03-22T10:36:32.547Z,230.62
2023-03-22T10:37:32.546Z,253.12
2023-03-22T10:38:32.515Z,427.50
2023-03-22T10:39:32.534Z,405.00
2023-03-22T10:40:32.519Z,438.75
2023-03-22T10:41:32.513Z,472.50
2023-03-22T10:42:32.487Z,388.12
2023-03-22T10:43:32.542Z,545.62
2023-03-22T10:44:32.444Z,613.12
2023-03-22T10:45:32.460Z,472.50
2023-03-22T10:46:32.466Z,528.75
2023-03-22T10:47:32.434Z,534.38
2023-03-22T10:48:32.481Z,427.50
2023-03-22T10:49:32.396Z,393.75
2023-03-22T10:50:32.438Z,399.38
2023-03-22T10:51:32.401Z,371.25
2023-03-22T10:52:32.368Z,258.75
2023-03-22T10:53:32.437Z,270.00
2023-03-22T10:54:32.348Z,270.00
2023-03-22T10:55:32.348Z,320.62
2023-03-22T10:56:32.368Z,258.75
2023-03-22T10:57:32.316Z,236.25
2023-03-22T10:58:32.312Z,225.00
2023-03-22T10:59:32.293Z,225.00
2023-03-22T11:00:32.372Z,219.38
2023-03-22T11:01:32.522Z,219.38
2023-03-22T11:02:32.521Z,213.75
2023-03-22T11:03:32.330Z,208.12
2023-03-22T11:04:32.263Z,202.50
2023-03-22T11:05:32.246Z,202.50
2023-03-22T11:06:32.258Z,208.12
2023-03-22T11:07:32.241Z,208.12
2023-03-22T11:08:32.230Z,208.12
2023-03-22T11:09:32.204Z,208.12
2023-03-22T11:10:32.325Z,202.50
2023-03-22T11:11:32.172Z,202.50
2023-03-22T11:12:32.217Z,196.88
2023-03-22T11:13:32.152Z,208.12
2023-03-22T11:14:32.172Z,236.25
2023-03-22T11:15:32.150Z,286.88
2023-03-22T11:16:32.189Z,315.00
2023-03-22T11:17:32.110Z,298.12
2023-03-22T11:18:32.119Z,258.75
2023-03-22T11:19:32.116Z,219.38
2023-03-22T11:20:32.117Z,208.12
2023-03-22T11:21:32.114Z,247.50
2023-03-22T11:22:32.060Z,258.75
2023-03-22T11:23:32.043Z,236.25
2023-03-22T11:24:32.047Z,427.50
2023-03-22T11:25:32.094Z,275.62
2023-03-22T11:26:32.008Z,382.50
2023-03-22T11:27:32.009Z,258.75
2023-03-22T11:28:32.005Z,219.38
2023-03-22T11:29:32.012Z,213.75
2023-03-22T11:30:31.986Z,225.00
2023-03-22T11:31:32.003Z,236.25
2023-03-22T11:32:32.007Z,208.12
2023-03-22T11:33:31.953Z,185.62
2023-03-22T11:34:31.950Z,180.00
2023-03-22T11:35:32.017Z,191.25
2023-03-22T11:36:31.917Z,180.00
2023-03-22T11:37:31.909Z,180.00
2023-03-22T11:38:31.911Z,174.38
2023-03-22T11:39:31.895Z,174.38
2023-03-22T11:40:31.900Z,168.75
2023-03-22T11:41:31.856Z,163.12
2023-03-22T11:42:31.886Z,151.88
2023-03-22T11:43:31.864Z,151.88
2023-03-22T11:44:31.842Z,168.75
2023-03-22T11:45:31.859Z,247.50
2023-03-22T11:46:32.033Z,208.12
2023-03-22T11:47:31.851Z,196.88
2023-03-22T11:48:31.962Z,208.12
2023-03-22T11:49:31.793Z,230.62
2023-03-22T11:50:31.825Z,315.00
2023-03-22T11:51:31.757Z,208.12
2023-03-22T11:52:31.792Z,208.12
2023-03-22T11:53:31.737Z,202.50
2023-03-22T11:54:31.800Z,270.00
2023-03-22T11:55:31.750Z,219.38
2023-03-22T11:56:31.721Z,410.62
2023-03-22T11:57:31.709Z,478.12
2023-03-22T11:58:31.710Z,517.50
2023-03-22T11:59:31.682Z,264.38
2023-03-22T12:00:31.678Z,241.88
2023-03-22T12:01:31.652Z,208.12
2023-03-22T12:02:31.819Z,371.25
2023-03-22T12:03:31.943Z,500.62
2023-03-22T12:04:31.660Z,438.75
2023-03-22T12:05:31.642Z,371.25
2023-03-22T12:06:31.635Z,326.25
2023-03-22T12:07:31.655Z,371.25
2023-03-22T12:08:31.590Z,376.88
2023-03-22T12:09:31.638Z,360.00
2023-03-22T12:10:31.580Z,686.25
2023-03-22T12:11:31.552Z,483.75
2023-03-22T12:12:31.534Z,360.00
2023-03-22T12:13:31.530Z,326.25
2023-03-22T12:14:31.514Z,315.00
2023-03-22T12:15:31.522Z,360.00
2023-03-22T12:16:31.560Z,348.75
2023-03-22T12:17:31.675Z,376.88
2023-03-22T12:18:31.475Z,393.75
2023-03-22T12:19:31.483Z,343.12
2023-03-22T12:20:31.459Z,292.50
2023-03-22T12:21:31.486Z,309.38
2023-03-22T12:22:31.448Z,258.75
2023-03-22T12:23:31.467Z,303.75
2023-03-22T12:24:31.423Z,438.75
2023-03-22T12:25:31.425Z,551.25
2023-03-22T12:26:31.410Z,579.38
2023-03-22T12:27:31.515Z,646.88
2023-03-22T12:28:31.379Z,798.75
2023-03-22T12:29:31.405Z,810.00
2023-03-22T12:30:31.381Z,866.25
2023-03-22T12:31:31.419Z,815.62
2023-03-22T12:32:31.433Z,798.75
2023-03-22T12:33:31.326Z,888.75
2023-03-22T12:34:31.337Z,421.88
2023-03-22T12:35:31.375Z,191.25
2023-03-22T12:36:31.311Z,776.25
2023-03-22T12:37:31.542Z,669.38
2023-03-22T12:38:31.297Z,624.38
2023-03-22T12:39:31.292Z,624.38
2023-03-22T12:40:31.245Z,686.25
2023-03-22T12:41:31.278Z,624.38
2023-03-22T12:42:34.675Z,523.12
2023-03-22T12:43:31.287Z,421.88
2023-03-22T12:44:31.201Z,388.12
2023-03-22T12:45:31.242Z,500.62
2023-03-22T12:46:31.266Z,534.38
2023-03-22T12:47:31.243Z,720.00
2023-03-22T12:48:31.281Z,776.25
2023-03-22T12:49:31.177Z,838.12
2023-03-22T12:50:31.265Z,911.25
2023-03-22T12:51:31.184Z,883.12
2023-03-22T12:52:37.704Z,883.12
2023-03-22T12:53:31.135Z,781.88
2023-03-22T12:54:31.104Z,770.62